sensor_id;sensor_type;location;lat;lon;timestamp;P1;durP1;ratioP1;P2;durP2;ratioP2
27003;SDS011;14546;47.590;19.022;2024-03-02T00:00:18;58.90;;;31.77;;
27003;SDS011;14546;47.590;19.022;2024-03-02T00:02:46;57.42;;;33.70;;
27003;SDS011;14546;47.590;19.022;2024-03-02T00:05:14;55.75;;;32.72;;
27003;SDS011;14546;47.590;19.022;2024-03-02T00:07:42;56.83;;;33.47;;
27003;SDS011;14546;47.590;19.022;2024-03-02T00:10:09;64.10;;;34.83;;
27003;SDS011;14546;47.590;19.022;2024-03-02T00:12:36;56.50;;;33.30;;
27003;SDS011;14546;47.590;19.022;2024-03-02T00:18:10;62.55;;;34.03;;
27003;SDS011;14546;47.590;19.022;2024-03-02T00:20:37;54.45;;;32.45;;
27003;SDS011;14546;47.590;19.022;2024-03-02T00:23:04;62.55;;;33.92;;
27003;SDS011;14546;47.590;19.022;2024-03-02T00:25:40;54.55;;;33.67;;
27003;SDS011;14546;47.590;19.022;2024-03-02T00:28:14;58.70;;;33.40;;
27003;SDS011;14546;47.590;19.022;2024-03-02T00:33:09;57.65;;;34.10;;
27003;SDS011;14546;47.590;19.022;2024-03-02T00:35:35;63.10;;;35.13;;
27003;SDS011;14546;47.590;19.022;2024-03-02T00:38:04;60.55;;;37.00;;
27003;SDS011;14546;47.590;19.022;2024-03-02T00:40:31;64.13;;;34.90;;
27003;SDS011;14546;47.590;19.022;2024-03-02T00:42:57;57.47;;;34.42;;
27003;SDS011;14546;47.590;19.022;2024-03-02T00:45:24;57.10;;;33.72;;
27003;SDS011;14546;47.590;19.022;2024-03-02T00:47:51;58.80;;;35.20;;
27003;SDS011;14546;47.590;19.022;2024-03-02T00:50:18;58.17;;;33.25;;
27003;SDS011;14546;47.590;19.022;2024-03-02T00:52:44;62.10;;;33.95;;
27003;SDS011;14546;47.590;19.022;2024-03-02T00:55:10;58.33;;;34.05;;
27003;SDS011;14546;47.590;19.022;2024-03-02T00:57:37;64.45;;;35.25;;
27003;SDS011;14546;47.590;19.022;2024-03-02T01:00:03;57.58;;;33.85;;
27003;SDS011;14546;47.590;19.022;2024-03-02T01:02:33;69.53;;;36.20;;
27003;SDS011;14546;47.590;19.022;2024-03-02T01:04:59;54.47;;;33.28;;
27003;SDS011;14546;47.590;19.022;2024-03-02T01:07:24;57.80;;;33.28;;
27003;SDS011;14546;47.590;19.022;2024-03-02T01:09:50;63.05;;;33.17;;
27003;SDS011;14546;47.590;19.022;2024-03-02T01:12:16;59.45;;;32.97;;
27003;SDS011;14546;47.590;19.022;2024-03-02T01:14:41;61.00;;;33.55;;
27003;SDS011;14546;47.590;19.022;2024-03-02T01:17:07;56.33;;;32.72;;
27003;SDS011;14546;47.590;19.022;2024-03-02T01:19:33;60.50;;;34.97;;
27003;SDS011;14546;47.590;19.022;2024-03-02T01:21:58;64.88;;;33.05;;
27003;SDS011;14546;47.590;19.022;2024-03-02T01:24:24;59.55;;;33.78;;
27003;SDS011;14546;47.590;19.022;2024-03-02T01:26:50;56.17;;;32.95;;
27003;SDS011;14546;47.590;19.022;2024-03-02T01:29:15;55.30;;;32.40;;
27003;SDS011;14546;47.590;19.022;2024-03-02T01:31:41;53.50;;;33.50;;
27003;SDS011;14546;47.590;19.022;2024-03-02T01:34:07;56.17;;;33.85;;
27003;SDS011;14546;47.590;19.022;2024-03-02T01:36:33;58.20;;;32.22;;
27003;SDS011;14546;47.590;19.022;2024-03-02T01:38:59;52.78;;;32.47;;
27003;SDS011;14546;47.590;19.022;2024-03-02T01:41:25;60.08;;;33.08;;
27003;SDS011;14546;47.590;19.022;2024-03-02T01:43:50;59.33;;;32.90;;
27003;SDS011;14546;47.590;19.022;2024-03-02T01:46:16;52.55;;;33.55;;
27003;SDS011;14546;47.590;19.022;2024-03-02T01:48:42;58.20;;;33.67;;
27003;SDS011;14546;47.590;19.022;2024-03-02T01:51:07;57.15;;;33.35;;
27003;SDS011;14546;47.590;19.022;2024-03-02T01:53:34;56.17;;;33.15;;
27003;SDS011;14546;47.590;19.022;2024-03-02T01:56:00;53.97;;;32.28;;
27003;SDS011;14546;47.590;19.022;2024-03-02T01:58:26;63.58;;;34.65;;
27003;SDS011;14546;47.590;19.022;2024-03-02T02:00:52;64.95;;;34.13;;
27003;SDS011;14546;47.590;19.022;2024-03-02T02:03:18;64.40;;;34.78;;
27003;SDS011;14546;47.590;19.022;2024-03-02T02:05:44;62.60;;;34.92;;
27003;SDS011;14546;47.590;19.022;2024-03-02T02:08:12;65.72;;;33.88;;
27003;SDS011;14546;47.590;19.022;2024-03-02T02:10:37;60.50;;;34.15;;
27003;SDS011;14546;47.590;19.022;2024-03-02T02:13:03;56.13;;;33.47;;
27003;SDS011;14546;47.590;19.022;2024-03-02T02:15:29;55.33;;;32.28;;
27003;SDS011;14546;47.590;19.022;2024-03-02T02:17:56;53.78;;;32.45;;
27003;SDS011;14546;47.590;19.022;2024-03-02T02:20:22;60.97;;;31.70;;
27003;SDS011;14546;47.590;19.022;2024-03-02T02:22:58;61.50;;;33.00;;
27003;SDS011;14546;47.590;19.022;2024-03-02T02:25:28;52.10;;;31.52;;
27003;SDS011;14546;47.590;19.022;2024-03-02T02:27:54;55.15;;;32.22;;
27003;SDS011;14546;47.590;19.022;2024-03-02T02:30:24;60.28;;;30.98;;
27003;SDS011;14546;47.590;19.022;2024-03-02T02:32:51;46.95;;;29.65;;
27003;SDS011;14546;47.590;19.022;2024-03-02T02:35:17;54.35;;;32.45;;
27003;SDS011;14546;47.590;19.022;2024-03-02T02:37:43;60.22;;;33.22;;
27003;SDS011;14546;47.590;19.022;2024-03-02T02:40:13;57.30;;;31.35;;
27003;SDS011;14546;47.590;19.022;2024-03-02T02:42:39;59.22;;;32.65;;
27003;SDS011;14546;47.590;19.022;2024-03-02T02:45:06;61.92;;;32.28;;
27003;SDS011;14546;47.590;19.022;2024-03-02T02:47:32;53.45;;;31.95;;
27003;SDS011;14546;47.590;19.022;2024-03-02T02:50:00;59.05;;;32.00;;
27003;SDS011;14546;47.590;19.022;2024-03-02T02:52:30;57.72;;;32.28;;
27003;SDS011;14546;47.590;19.022;2024-03-02T02:55:02;53.15;;;31.67;;
27003;SDS011;14546;47.590;19.022;2024-03-02T02:57:29;57.55;;;33.30;;
27003;SDS011;14546;47.590;19.022;2024-03-02T02:59:56;57.88;;;32.00;;
27003;SDS011;14546;47.590;19.022;2024-03-02T03:02:22;55.90;;;32.72;;
27003;SDS011;14546;47.590;19.022;2024-03-02T03:04:48;62.10;;;32.47;;
27003;SDS011;14546;47.590;19.022;2024-03-02T03:07:13;60.88;;;33.20;;
27003;SDS011;14546;47.590;19.022;2024-03-02T03:09:39;58.53;;;33.70;;
27003;SDS011;14546;47.590;19.022;2024-03-02T03:12:04;58.92;;;32.72;;
27003;SDS011;14546;47.590;19.022;2024-03-02T03:14:30;53.10;;;30.75;;
27003;SDS011;14546;47.590;19.022;2024-03-02T03:16:56;55.45;;;30.63;;
27003;SDS011;14546;47.590;19.022;2024-03-02T03:19:21;56.80;;;32.15;;
27003;SDS011;14546;47.590;19.022;2024-03-02T03:21:47;51.03;;;31.63;;
27003;SDS011;14546;47.590;19.022;2024-03-02T03:24:13;55.35;;;30.90;;
27003;SDS011;14546;47.590;19.022;2024-03-02T03:26:38;53.40;;;29.63;;
27003;SDS011;14546;47.590;19.022;2024-03-02T03:29:04;53.40;;;30.13;;
27003;SDS011;14546;47.590;19.022;2024-03-02T03:31:29;51.28;;;29.15;;
27003;SDS011;14546;47.590;19.022;2024-03-02T03:33:55;49.30;;;29.80;;
27003;SDS011;14546;47.590;19.022;2024-03-02T03:36:21;53.63;;;29.67;;
27003;SDS011;14546;47.590;19.022;2024-03-02T03:38:46;49.78;;;30.45;;
27003;SDS011;14546;47.590;19.022;2024-03-02T03:41:13;51.75;;;29.60;;
27003;SDS011;14546;47.590;19.022;2024-03-02T03:43:38;53.17;;;30.45;;
27003;SDS011;14546;47.590;19.022;2024-03-02T03:46:04;53.50;;;29.40;;
27003;SDS011;14546;47.590;19.022;2024-03-02T03:48:30;51.67;;;29.60;;
27003;SDS011;14546;47.590;19.022;2024-03-02T03:50:56;51.10;;;29.17;;
27003;SDS011;14546;47.590;19.022;2024-03-02T03:53:22;55.00;;;30.65;;
27003;SDS011;14546;47.590;19.022;2024-03-02T03:55:48;52.53;;;29.00;;
27003;SDS011;14546;47.590;19.022;2024-03-02T03:58:16;51.58;;;30.70;;
27003;SDS011;14546;47.590;19.022;2024-03-02T04:00:43;52.58;;;30.25;;
27003;SDS011;14546;47.590;19.022;2024-03-02T04:03:09;52.67;;;30.80;;
27003;SDS011;14546;47.590;19.022;2024-03-02T04:05:35;55.05;;;31.40;;
27003;SDS011;14546;47.590;19.022;2024-03-02T04:08:00;58.78;;;32.35;;
27003;SDS011;14546;47.590;19.022;2024-03-02T04:10:26;53.58;;;31.02;;
27003;SDS011;14546;47.590;19.022;2024-03-02T04:12:52;60.97;;;31.95;;
27003;SDS011;14546;47.590;19.022;2024-03-02T04:15:17;52.13;;;31.70;;
27003;SDS011;14546;47.590;19.022;2024-03-02T04:17:43;57.20;;;32.92;;
27003;SDS011;14546;47.590;19.022;2024-03-02T04:20:09;53.97;;;32.20;;
27003;SDS011;14546;47.590;19.022;2024-03-02T04:22:37;58.58;;;34.08;;
27003;SDS011;14546;47.590;19.022;2024-03-02T04:25:03;56.20;;;33.20;;
27003;SDS011;14546;47.590;19.022;2024-03-02T04:27:29;58.97;;;33.45;;
27003;SDS011;14546;47.590;19.022;2024-03-02T04:29:56;52.63;;;32.50;;
27003;SDS011;14546;47.590;19.022;2024-03-02T04:32:22;56.78;;;33.20;;
27003;SDS011;14546;47.590;19.022;2024-03-02T04:34:48;56.75;;;32.72;;
27003;SDS011;14546;47.590;19.022;2024-03-02T04:37:13;61.28;;;33.58;;
27003;SDS011;14546;47.590;19.022;2024-03-02T04:39:40;60.45;;;34.38;;
27003;SDS011;14546;47.590;19.022;2024-03-02T04:42:05;59.65;;;33.92;;
27003;SDS011;14546;47.590;19.022;2024-03-02T04:44:31;64.07;;;35.33;;
27003;SDS011;14546;47.590;19.022;2024-03-02T04:46:57;62.72;;;36.88;;
27003;SDS011;14546;47.590;19.022;2024-03-02T04:49:23;57.42;;;35.55;;
27003;SDS011;14546;47.590;19.022;2024-03-02T04:51:48;63.08;;;34.88;;
27003;SDS011;14546;47.590;19.022;2024-03-02T04:54:14;64.45;;;36.40;;
27003;SDS011;14546;47.590;19.022;2024-03-02T04:56:40;65.55;;;37.20;;
27003;SDS011;14546;47.590;19.022;2024-03-02T04:59:09;69.35;;;37.67;;
27003;SDS011;14546;47.590;19.022;2024-03-02T05:01:35;70.13;;;38.72;;
27003;SDS011;14546;47.590;19.022;2024-03-02T05:04:01;62.03;;;36.50;;
27003;SDS011;14546;47.590;19.022;2024-03-02T05:06:27;62.63;;;36.35;;
27003;SDS011;14546;47.590;19.022;2024-03-02T05:08:52;63.83;;;36.75;;
27003;SDS011;14546;47.590;19.022;2024-03-02T05:11:18;70.35;;;38.40;;
27003;SDS011;14546;47.590;19.022;2024-03-02T05:14:02;62.03;;;35.95;;
27003;SDS011;14546;47.590;19.022;2024-03-02T05:16:28;68.35;;;38.20;;
27003;SDS011;14546;47.590;19.022;2024-03-02T05:18:54;67.20;;;38.10;;
27003;SDS011;14546;47.590;19.022;2024-03-02T05:21:19;62.08;;;36.47;;
27003;SDS011;14546;47.590;19.022;2024-03-02T05:23:45;71.45;;;39.00;;
27003;SDS011;14546;47.590;19.022;2024-03-02T05:26:11;62.92;;;36.72;;
27003;SDS011;14546;47.590;19.022;2024-03-02T05:28:39;70.15;;;37.20;;
27003;SDS011;14546;47.590;19.022;2024-03-02T05:31:05;65.65;;;37.17;;
27003;SDS011;14546;47.590;19.022;2024-03-02T05:33:31;68.43;;;38.22;;
27003;SDS011;14546;47.590;19.022;2024-03-02T05:35:58;62.47;;;36.50;;
27003;SDS011;14546;47.590;19.022;2024-03-02T05:38:24;71.70;;;38.10;;
27003;SDS011;14546;47.590;19.022;2024-03-02T05:40:49;61.42;;;36.88;;
27003;SDS011;14546;47.590;19.022;2024-03-02T05:43:15;70.70;;;37.65;;
27003;SDS011;14546;47.590;19.022;2024-03-02T05:45:41;64.43;;;38.17;;
27003;SDS011;14546;47.590;19.022;2024-03-02T05:48:07;73.13;;;39.05;;
27003;SDS011;14546;47.590;19.022;2024-03-02T05:50:33;65.40;;;37.10;;
27003;SDS011;14546;47.590;19.022;2024-03-02T05:52:58;66.22;;;38.75;;
27003;SDS011;14546;47.590;19.022;2024-03-02T05:55:24;74.05;;;39.40;;
27003;SDS011;14546;47.590;19.022;2024-03-02T05:57:50;62.63;;;37.40;;
27003;SDS011;14546;47.590;19.022;2024-03-02T06:00:31;70.38;;;39.00;;
27003;SDS011;14546;47.590;19.022;2024-03-02T06:02:56;72.72;;;39.10;;
27003;SDS011;14546;47.590;19.022;2024-03-02T06:05:22;69.00;;;39.03;;
27003;SDS011;14546;47.590;19.022;2024-03-02T06:07:48;74.72;;;42.13;;
27003;SDS011;14546;47.590;19.022;2024-03-02T06:10:14;85.25;;;43.22;;
27003;SDS011;14546;47.590;19.022;2024-03-02T06:12:40;83.38;;;41.88;;
27003;SDS011;14546;47.590;19.022;2024-03-02T06:15:05;76.45;;;41.75;;
27003;SDS011;14546;47.590;19.022;2024-03-02T06:17:31;80.95;;;41.95;;
27003;SDS011;14546;47.590;19.022;2024-03-02T06:19:57;80.97;;;44.45;;
27003;SDS011;14546;47.590;19.022;2024-03-02T06:22:23;78.97;;;42.13;;
27003;SDS011;14546;47.590;19.022;2024-03-02T06:24:50;76.18;;;41.53;;
27003;SDS011;14546;47.590;19.022;2024-03-02T06:27:16;85.78;;;44.72;;
27003;SDS011;14546;47.590;19.022;2024-03-02T06:29:41;83.72;;;43.75;;
27003;SDS011;14546;47.590;19.022;2024-03-02T06:32:07;81.60;;;44.47;;
27003;SDS011;14546;47.590;19.022;2024-03-02T06:34:33;76.05;;;41.75;;
27003;SDS011;14546;47.590;19.022;2024-03-02T06:36:59;82.80;;;43.55;;
27003;SDS011;14546;47.590;19.022;2024-03-02T06:39:24;79.30;;;43.17;;
27003;SDS011;14546;47.590;19.022;2024-03-02T06:41:51;90.05;;;43.63;;
27003;SDS011;14546;47.590;19.022;2024-03-02T06:44:16;76.53;;;42.28;;
27003;SDS011;14546;47.590;19.022;2024-03-02T06:46:42;78.00;;;41.90;;
27003;SDS011;14546;47.590;19.022;2024-03-02T06:49:08;80.18;;;41.22;;
27003;SDS011;14546;47.590;19.022;2024-03-02T06:51:35;70.63;;;39.80;;
27003;SDS011;14546;47.590;19.022;2024-03-02T06:54:01;69.47;;;40.35;;
27003;SDS011;14546;47.590;19.022;2024-03-02T06:56:27;79.57;;;41.67;;
27003;SDS011;14546;47.590;19.022;2024-03-02T06:58:52;74.22;;;42.70;;
27003;SDS011;14546;47.590;19.022;2024-03-02T07:01:18;76.28;;;41.67;;
27003;SDS011;14546;47.590;19.022;2024-03-02T07:03:45;77.65;;;42.85;;
27003;SDS011;14546;47.590;19.022;2024-03-02T07:06:11;78.90;;;42.53;;
27003;SDS011;14546;47.590;19.022;2024-03-02T07:08:36;71.80;;;42.05;;
27003;SDS011;14546;47.590;19.022;2024-03-02T07:11:02;74.35;;;42.75;;
27003;SDS011;14546;47.590;19.022;2024-03-02T07:13:28;75.80;;;42.05;;
27003;SDS011;14546;47.590;19.022;2024-03-02T07:15:54;74.72;;;41.97;;
27003;SDS011;14546;47.590;19.022;2024-03-02T07:18:39;73.95;;;39.60;;
27003;SDS011;14546;47.590;19.022;2024-03-02T07:21:10;76.30;;;41.38;;
27003;SDS011;14546;47.590;19.022;2024-03-02T07:23:36;76.97;;;41.35;;
27003;SDS011;14546;47.590;19.022;2024-03-02T07:26:01;76.05;;;42.83;;
27003;SDS011;14546;47.590;19.022;2024-03-02T07:28:28;69.90;;;40.03;;
27003;SDS011;14546;47.590;19.022;2024-03-02T07:31:00;67.35;;;39.35;;
27003;SDS011;14546;47.590;19.022;2024-03-02T07:33:26;72.27;;;41.17;;
27003;SDS011;14546;47.590;19.022;2024-03-02T07:35:53;70.65;;;42.47;;
27003;SDS011;14546;47.590;19.022;2024-03-02T07:38:19;78.68;;;42.22;;
27003;SDS011;14546;47.590;19.022;2024-03-02T07:40:46;79.45;;;43.10;;
27003;SDS011;14546;47.590;19.022;2024-03-02T07:43:12;68.53;;;40.22;;
27003;SDS011;14546;47.590;19.022;2024-03-02T07:45:38;77.97;;;41.55;;
27003;SDS011;14546;47.590;19.022;2024-03-02T07:48:04;76.40;;;43.47;;
27003;SDS011;14546;47.590;19.022;2024-03-02T07:50:30;69.07;;;42.30;;
27003;SDS011;14546;47.590;19.022;2024-03-02T07:52:59;72.07;;;41.65;;
27003;SDS011;14546;47.590;19.022;2024-03-02T07:55:25;75.03;;;41.67;;
27003;SDS011;14546;47.590;19.022;2024-03-02T07:57:51;81.30;;;43.70;;
27003;SDS011;14546;47.590;19.022;2024-03-02T08:00:17;71.65;;;43.08;;
27003;SDS011;14546;47.590;19.022;2024-03-02T08:02:43;80.57;;;43.80;;
27003;SDS011;14546;47.590;19.022;2024-03-02T08:05:09;77.07;;;42.70;;
27003;SDS011;14546;47.590;19.022;2024-03-02T08:07:35;77.07;;;44.10;;
27003;SDS011;14546;47.590;19.022;2024-03-02T08:10:01;80.38;;;45.33;;
27003;SDS011;14546;47.590;19.022;2024-03-02T08:12:26;81.68;;;43.38;;
27003;SDS011;14546;47.590;19.022;2024-03-02T08:14:52;76.57;;;43.13;;
27003;SDS011;14546;47.590;19.022;2024-03-02T08:17:18;79.88;;;45.15;;
27003;SDS011;14546;47.590;19.022;2024-03-02T08:19:44;79.28;;;45.95;;
27003;SDS011;14546;47.590;19.022;2024-03-02T08:22:10;82.88;;;47.00;;
27003;SDS011;14546;47.590;19.022;2024-03-02T08:24:36;88.45;;;48.08;;
27003;SDS011;14546;47.590;19.022;2024-03-02T08:27:02;90.45;;;47.10;;
27003;SDS011;14546;47.590;19.022;2024-03-02T08:29:28;81.38;;;46.10;;
27003;SDS011;14546;47.590;19.022;2024-03-02T08:31:54;78.45;;;44.65;;
27003;SDS011;14546;47.590;19.022;2024-03-02T08:34:20;81.75;;;43.60;;
27003;SDS011;14546;47.590;19.022;2024-03-02T08:36:46;91.60;;;45.25;;
27003;SDS011;14546;47.590;19.022;2024-03-02T08:39:12;98.40;;;50.83;;
27003;SDS011;14546;47.590;19.022;2024-03-02T08:41:41;78.07;;;43.78;;
27003;SDS011;14546;47.590;19.022;2024-03-02T08:44:08;75.97;;;44.90;;
27003;SDS011;14546;47.590;19.022;2024-03-02T08:46:34;77.50;;;43.63;;
27003;SDS011;14546;47.590;19.022;2024-03-02T08:49:01;76.03;;;43.45;;
27003;SDS011;14546;47.590;19.022;2024-03-02T08:51:27;79.13;;;45.03;;
27003;SDS011;14546;47.590;19.022;2024-03-02T08:53:53;66.13;;;41.33;;
27003;SDS011;14546;47.590;19.022;2024-03-02T08:56:19;72.28;;;41.03;;
27003;SDS011;14546;47.590;19.022;2024-03-02T08:58:46;74.90;;;42.28;;
27003;SDS011;14546;47.590;19.022;2024-03-02T09:01:12;73.85;;;44.03;;
27003;SDS011;14546;47.590;19.022;2024-03-02T09:03:38;70.45;;;43.33;;
27003;SDS011;14546;47.590;19.022;2024-03-02T09:06:04;69.72;;;40.25;;
27003;SDS011;14546;47.590;19.022;2024-03-02T09:08:30;70.80;;;40.90;;
27003;SDS011;14546;47.590;19.022;2024-03-02T09:10:56;75.18;;;41.10;;
27003;SDS011;14546;47.590;19.022;2024-03-02T09:13:23;73.75;;;41.35;;
27003;SDS011;14546;47.590;19.022;2024-03-02T09:15:49;69.75;;;41.22;;
27003;SDS011;14546;47.590;19.022;2024-03-02T09:18:15;68.50;;;40.55;;
27003;SDS011;14546;47.590;19.022;2024-03-02T09:20:41;71.32;;;41.22;;
27003;SDS011;14546;47.590;19.022;2024-03-02T09:23:07;70.20;;;43.80;;
27003;SDS011;14546;47.590;19.022;2024-03-02T09:25:33;66.88;;;40.60;;
27003;SDS011;14546;47.590;19.022;2024-03-02T09:27:59;76.28;;;40.17;;
27003;SDS011;14546;47.590;19.022;2024-03-02T09:30:25;70.50;;;40.28;;
27003;SDS011;14546;47.590;19.022;2024-03-02T09:32:51;70.03;;;39.53;;
27003;SDS011;14546;47.590;19.022;2024-03-02T09:35:17;66.03;;;40.03;;
27003;SDS011;14546;47.590;19.022;2024-03-02T09:37:43;65.55;;;37.47;;
27003;SDS011;14546;47.590;19.022;2024-03-02T09:40:09;63.35;;;37.78;;
27003;SDS011;14546;47.590;19.022;2024-03-02T09:42:35;67.78;;;38.65;;
27003;SDS011;14546;47.590;19.022;2024-03-02T09:45:02;63.20;;;38.30;;
27003;SDS011;14546;47.590;19.022;2024-03-02T09:47:28;62.22;;;36.50;;
27003;SDS011;14546;47.590;19.022;2024-03-02T09:49:54;62.88;;;37.58;;
27003;SDS011;14546;47.590;19.022;2024-03-02T09:52:22;64.55;;;38.28;;
27003;SDS011;14546;47.590;19.022;2024-03-02T09:54:48;58.45;;;36.17;;
27003;SDS011;14546;47.590;19.022;2024-03-02T09:57:14;58.85;;;35.63;;
27003;SDS011;14546;47.590;19.022;2024-03-02T09:59:41;62.83;;;36.47;;
27003;SDS011;14546;47.590;19.022;2024-03-02T10:02:07;56.63;;;34.38;;
27003;SDS011;14546;47.590;19.022;2024-03-02T10:04:33;54.65;;;33.63;;
27003;SDS011;14546;47.590;19.022;2024-03-02T10:07:15;50.63;;;33.20;;
27003;SDS011;14546;47.590;19.022;2024-03-02T10:09:42;52.38;;;32.33;;
27003;SDS011;14546;47.590;19.022;2024-03-02T10:12:08;51.95;;;32.90;;
27003;SDS011;14546;47.590;19.022;2024-03-02T10:14:35;54.63;;;33.17;;
27003;SDS011;14546;47.590;19.022;2024-03-02T10:17:01;47.75;;;31.85;;
27003;SDS011;14546;47.590;19.022;2024-03-02T10:19:28;52.50;;;32.20;;
27003;SDS011;14546;47.590;19.022;2024-03-02T10:21:58;48.63;;;30.67;;
27003;SDS011;14546;47.590;19.022;2024-03-02T10:24:24;48.65;;;31.60;;
27003;SDS011;14546;47.590;19.022;2024-03-02T10:26:51;51.05;;;31.65;;
27003;SDS011;14546;47.590;19.022;2024-03-02T10:29:17;49.97;;;30.75;;
27003;SDS011;14546;47.590;19.022;2024-03-02T10:31:44;47.80;;;29.58;;
27003;SDS011;14546;47.590;19.022;2024-03-02T10:34:11;51.13;;;30.85;;
27003;SDS011;14546;47.590;19.022;2024-03-02T10:36:37;50.83;;;31.85;;
27003;SDS011;14546;47.590;19.022;2024-03-02T10:39:06;48.60;;;30.42;;
27003;SDS011;14546;47.590;19.022;2024-03-02T10:41:33;48.33;;;31.35;;
27003;SDS011;14546;47.590;19.022;2024-03-02T10:44:01;45.85;;;29.50;;
27003;SDS011;14546;47.590;19.022;2024-03-02T10:46:28;42.58;;;27.55;;
27003;SDS011;14546;47.590;19.022;2024-03-02T10:48:55;46.65;;;28.25;;
27003;SDS011;14546;47.590;19.022;2024-03-02T10:51:21;42.58;;;27.50;;
27003;SDS011;14546;47.590;19.022;2024-03-02T10:53:47;38.88;;;26.23;;
27003;SDS011;14546;47.590;19.022;2024-03-02T10:56:15;35.55;;;25.08;;
27003;SDS011;14546;47.590;19.022;2024-03-02T10:58:42;37.80;;;24.55;;
27003;SDS011;14546;47.590;19.022;2024-03-02T11:01:08;38.35;;;24.25;;
27003;SDS011;14546;47.590;19.022;2024-03-02T11:03:36;36.25;;;24.17;;
27003;SDS011;14546;47.590;19.022;2024-03-02T11:06:03;32.58;;;23.60;;
27003;SDS011;14546;47.590;19.022;2024-03-02T11:08:33;35.08;;;24.42;;
27003;SDS011;14546;47.590;19.022;2024-03-02T11:11:06;39.10;;;25.33;;
27003;SDS011;14546;47.590;19.022;2024-03-02T11:13:33;34.37;;;24.10;;
27003;SDS011;14546;47.590;19.022;2024-03-02T11:16:03;37.63;;;24.65;;
27003;SDS011;14546;47.590;19.022;2024-03-02T11:18:29;35.97;;;25.20;;
27003;SDS011;14546;47.590;19.022;2024-03-02T11:20:56;38.40;;;25.63;;
27003;SDS011;14546;47.590;19.022;2024-03-02T11:23:31;37.25;;;23.75;;
27003;SDS011;14546;47.590;19.022;2024-03-02T11:28:44;33.50;;;22.92;;
27003;SDS011;14546;47.590;19.022;2024-03-02T11:31:10;30.73;;;21.90;;
27003;SDS011;14546;47.590;19.022;2024-03-02T11:33:37;28.75;;;21.30;;
27003;SDS011;14546;47.590;19.022;2024-03-02T11:36:03;29.50;;;21.10;;
27003;SDS011;14546;47.590;19.022;2024-03-02T11:38:30;31.95;;;21.73;;
27003;SDS011;14546;47.590;19.022;2024-03-02T11:40:59;29.08;;;21.08;;
27003;SDS011;14546;47.590;19.022;2024-03-02T11:43:25;30.42;;;21.40;;
27003;SDS011;14546;47.590;19.022;2024-03-02T11:45:56;30.40;;;21.55;;
27003;SDS011;14546;47.590;19.022;2024-03-02T11:48:23;32.42;;;21.90;;
27003;SDS011;14546;47.590;19.022;2024-03-02T11:50:50;29.88;;;20.42;;
27003;SDS011;14546;47.590;19.022;2024-03-02T11:53:17;27.73;;;20.63;;
27003;SDS011;14546;47.590;19.022;2024-03-02T11:55:43;27.33;;;20.60;;
27003;SDS011;14546;47.590;19.022;2024-03-02T11:58:13;31.70;;;20.98;;
27003;SDS011;14546;47.590;19.022;2024-03-02T12:00:41;33.22;;;23.42;;
27003;SDS011;14546;47.590;19.022;2024-03-02T12:03:08;32.90;;;23.63;;
27003;SDS011;14546;47.590;19.022;2024-03-02T12:05:34;31.10;;;23.05;;
27003;SDS011;14546;47.590;19.022;2024-03-02T12:08:01;31.60;;;23.55;;
27003;SDS011;14546;47.590;19.022;2024-03-02T12:10:28;30.85;;;22.13;;
27003;SDS011;14546;47.590;19.022;2024-03-02T12:15:24;32.25;;;22.63;;
27003;SDS011;14546;47.590;19.022;2024-03-02T12:17:52;33.95;;;24.42;;
27003;SDS011;14546;47.590;19.022;2024-03-02T12:20:18;30.55;;;22.02;;
27003;SDS011;14546;47.590;19.022;2024-03-02T12:22:44;34.33;;;24.00;;
27003;SDS011;14546;47.590;19.022;2024-03-02T12:25:11;37.03;;;23.88;;
27003;SDS011;14546;47.590;19.022;2024-03-02T12:27:38;33.60;;;23.70;;
27003;SDS011;14546;47.590;19.022;2024-03-02T12:30:05;29.73;;;22.40;;
27003;SDS011;14546;47.590;19.022;2024-03-02T12:32:35;30.23;;;22.23;;
27003;SDS011;14546;47.590;19.022;2024-03-02T12:35:01;31.08;;;20.83;;
27003;SDS011;14546;47.590;19.022;2024-03-02T12:37:30;30.20;;;21.63;;
27003;SDS011;14546;47.590;19.022;2024-03-02T12:39:56;28.58;;;22.27;;
27003;SDS011;14546;47.590;19.022;2024-03-02T12:42:23;29.52;;;21.70;;
27003;SDS011;14546;47.590;19.022;2024-03-02T12:44:51;32.58;;;23.40;;
27003;SDS011;14546;47.590;19.022;2024-03-02T12:47:20;30.92;;;23.05;;
27003;SDS011;14546;47.590;19.022;2024-03-02T12:49:46;31.90;;;24.17;;
27003;SDS011;14546;47.590;19.022;2024-03-02T12:52:13;33.42;;;24.02;;
27003;SDS011;14546;47.590;19.022;2024-03-02T12:54:39;33.28;;;24.08;;
27003;SDS011;14546;47.590;19.022;2024-03-02T12:57:05;34.05;;;23.52;;
27003;SDS011;14546;47.590;19.022;2024-03-02T12:59:32;33.92;;;23.42;;
27003;SDS011;14546;47.590;19.022;2024-03-02T13:01:58;32.47;;;23.42;;
27003;SDS011;14546;47.590;19.022;2024-03-02T13:04:24;32.28;;;24.27;;
27003;SDS011;14546;47.590;19.022;2024-03-02T13:06:51;30.67;;;22.42;;
27003;SDS011;14546;47.590;19.022;2024-03-02T13:09:18;32.47;;;23.70;;
27003;SDS011;14546;47.590;19.022;2024-03-02T13:11:44;32.65;;;24.17;;
27003;SDS011;14546;47.590;19.022;2024-03-02T13:14:10;31.17;;;23.75;;
27003;SDS011;14546;47.590;19.022;2024-03-02T13:16:40;33.67;;;22.23;;
27003;SDS011;14546;47.590;19.022;2024-03-02T13:19:10;29.58;;;22.15;;
27003;SDS011;14546;47.590;19.022;2024-03-02T13:21:37;27.85;;;21.10;;
27003;SDS011;14546;47.590;19.022;2024-03-02T13:24:03;30.83;;;22.02;;
27003;SDS011;14546;47.590;19.022;2024-03-02T13:26:29;28.45;;;20.75;;
27003;SDS011;14546;47.590;19.022;2024-03-02T13:28:55;33.63;;;21.63;;
27003;SDS011;14546;47.590;19.022;2024-03-02T13:31:22;29.77;;;22.02;;
27003;SDS011;14546;47.590;19.022;2024-03-02T13:33:48;32.42;;;22.88;;
27003;SDS011;14546;47.590;19.022;2024-03-02T13:36:14;34.20;;;22.77;;
27003;SDS011;14546;47.590;19.022;2024-03-02T13:38:40;34.85;;;23.30;;
27003;SDS011;14546;47.590;19.022;2024-03-02T13:41:06;34.95;;;22.63;;
27003;SDS011;14546;47.590;19.022;2024-03-02T13:43:32;35.78;;;24.48;;
27003;SDS011;14546;47.590;19.022;2024-03-02T13:45:59;34.63;;;23.02;;
27003;SDS011;14546;47.590;19.022;2024-03-02T13:48:25;34.47;;;21.63;;
27003;SDS011;14546;47.590;19.022;2024-03-02T13:50:52;38.85;;;22.23;;
27003;SDS011;14546;47.590;19.022;2024-03-02T13:53:18;36.47;;;20.98;;
27003;SDS011;14546;47.590;19.022;2024-03-02T13:55:45;39.53;;;22.23;;
27003;SDS011;14546;47.590;19.022;2024-03-02T13:58:11;41.97;;;24.35;;
27003;SDS011;14546;47.590;19.022;2024-03-02T14:00:37;36.47;;;23.27;;
27003;SDS011;14546;47.590;19.022;2024-03-02T14:03:04;45.40;;;24.35;;
27003;SDS011;14546;47.590;19.022;2024-03-02T14:05:30;38.20;;;23.70;;
27003;SDS011;14546;47.590;19.022;2024-03-02T14:07:56;39.03;;;22.63;;
27003;SDS011;14546;47.590;19.022;2024-03-02T14:10:22;40.90;;;22.90;;
27003;SDS011;14546;47.590;19.022;2024-03-02T14:12:48;41.05;;;24.95;;
27003;SDS011;14546;47.590;19.022;2024-03-02T14:15:14;41.17;;;23.13;;